Chapman, NE (68827)

8:18 AM CDT on March 26, 2017 (GMT -0500)
MUP140 | | Change Station

Elev 1777 ft 41.01 °N, 98.19 °W | Updated 27 minutes ago

Overcast
Overcast
43.0 °F
Feels Like 43.0 °F
N
2.0
Wind Variable Wind from WSW
Gusts 2.0 mph

Today
High -- | Low -- °F
--% Chance of Precip.
Yesterday
High -- | Low -- °F
Precip. -- in
Pressure 29.90 in
Visibility 1.5 miles
Clouds Overcast 400 ft
Dew Point Not available.
Humidity Not available.
Rainfall in
Snow Depth Not available.
7:25 AM 7:51 PM
Waning Crescent, 3% visible
SPECI KGRI 261301Z 07004KT 1 1/2SM BR OVC004 03/03 A2990 RMK AO2 CIG 002V007 T00330033
Pressure 29.90 in
Visibility 1.5 miles
Clouds Overcast 400 ft
Dew Point Not available.
Humidity Not available.
Rainfall in
Snow Depth Not available.
7:25 AM 7:51 PM
Waning Crescent, 3% visible
SPECI KGRI 261301Z 07004KT 1 1/2SM BR OVC004 03/03 A2990 RMK AO2 CIG 002V007 T00330033

Get Severe Weather Alerts

Thanks for signing up!

Be on the lookout for a verification email in your inbox.

You'll start receiving the daily forecast at 8 AM.

×

10-Day Weather Forecast

Almanac

Astronomy

Mar. 26, 2017 Rise Set
Actual Time
Civil Twilight
Nautical Twilight
Astronomical Twilight
Moon
Length of Visible Light
Length of Day
Tomorrow will be .
, % of the Moon is Illuminated

Today's Extremes

State Highs State Lows

Community

WunderPhotos

Upload Photos

1,962,540 photos uploaded!

WunderBlog® & News

Nearby

Air Quality

  Air Quality AQ Index Pollutant
Not available.

Snow Depth

Station Depth Elevation

Earthquake Activity

City Distance Mag. Time & Date
Minimum magnitude displayed is 2.5.

Earthquake Activity

City Distance Mag. Time & Date
Minimum magnitude displayed is 2.5.

Coastal Water Temperatures

Place Temperature

Stations

Nearby Weather Stations

Station Location Temp. Windchill Dew Point Humidity Wind Precip. Elev Updated Type
                   

Watches & Warnings

There are currently no watches in effect.